sensor_id;sensor_type;location;lat;lon;timestamp;P1;durP1;ratioP1;P2;durP2;ratioP2
62905;SDS011;49003;51.038;3.602;2022-08-21T00:01:57;9.40;;;4.38;;
62905;SDS011;49003;51.038;3.602;2022-08-21T00:04:26;11.88;;;5.00;;
62905;SDS011;49003;51.038;3.602;2022-08-21T00:06:52;18.73;;;6.70;;
62905;SDS011;49003;51.038;3.602;2022-08-21T00:09:18;16.10;;;5.15;;
62905;SDS011;49003;51.038;3.602;2022-08-21T00:11:44;20.42;;;5.80;;
62905;SDS011;49003;51.038;3.602;2022-08-21T00:14:13;18.20;;;5.13;;
62905;SDS011;49003;51.038;3.602;2022-08-21T00:16:41;18.30;;;4.78;;
62905;SDS011;49003;51.038;3.602;2022-08-21T00:19:07;13.70;;;4.50;;
62905;SDS011;49003;51.038;3.602;2022-08-21T00:21:35;19.77;;;5.57;;
62905;SDS011;49003;51.038;3.602;2022-08-21T00:24:02;19.77;;;5.65;;
62905;SDS011;49003;51.038;3.602;2022-08-21T00:26:28;18.02;;;4.63;;
62905;SDS011;49003;51.038;3.602;2022-08-21T00:28:53;13.75;;;6.10;;
62905;SDS011;49003;51.038;3.602;2022-08-21T00:31:21;18.00;;;5.85;;
62905;SDS011;49003;51.038;3.602;2022-08-21T00:33:47;16.23;;;6.22;;
62905;SDS011;49003;51.038;3.602;2022-08-21T00:36:13;16.23;;;5.25;;
62905;SDS011;49003;51.038;3.602;2022-08-21T00:38:41;22.90;;;5.70;;
62905;SDS011;49003;51.038;3.602;2022-08-21T00:41:11;13.55;;;5.38;;
62905;SDS011;49003;51.038;3.602;2022-08-21T00:43:40;10.75;;;5.03;;
62905;SDS011;49003;51.038;3.602;2022-08-21T00:46:06;14.45;;;4.70;;
62905;SDS011;49003;51.038;3.602;2022-08-21T00:48:32;14.45;;;5.35;;
62905;SDS011;49003;51.038;3.602;2022-08-21T00:51:06;14.20;;;5.38;;
62905;SDS011;49003;51.038;3.602;2022-08-21T00:53:42;19.35;;;4.93;;
62905;SDS011;49003;51.038;3.602;2022-08-21T00:56:12;11.70;;;4.97;;
62905;SDS011;49003;51.038;3.602;2022-08-21T00:58:39;19.50;;;5.38;;
62905;SDS011;49003;51.038;3.602;2022-08-21T01:01:08;13.13;;;5.05;;
62905;SDS011;49003;51.038;3.602;2022-08-21T01:03:34;15.52;;;6.55;;
62905;SDS011;49003;51.038;3.602;2022-08-21T01:06:01;16.23;;;5.82;;
62905;SDS011;49003;51.038;3.602;2022-08-21T01:08:28;17.75;;;4.93;;
62905;SDS011;49003;51.038;3.602;2022-08-21T01:10:54;18.52;;;5.43;;
62905;SDS011;49003;51.038;3.602;2022-08-21T01:13:24;21.60;;;5.30;;
62905;SDS011;49003;51.038;3.602;2022-08-21T01:15:52;22.23;;;6.70;;
62905;SDS011;49003;51.038;3.602;2022-08-21T01:18:22;18.77;;;5.47;;
62905;SDS011;49003;51.038;3.602;2022-08-21T01:23:26;19.80;;;5.10;;
62905;SDS011;49003;51.038;3.602;2022-08-21T01:25:51;22.15;;;5.82;;
62905;SDS011;49003;51.038;3.602;2022-08-21T01:28:19;14.45;;;4.93;;
62905;SDS011;49003;51.038;3.602;2022-08-21T01:30:52;19.67;;;4.20;;
62905;SDS011;49003;51.038;3.602;2022-08-21T01:33:19;15.75;;;5.05;;
62905;SDS011;49003;51.038;3.602;2022-08-21T01:35:49;13.40;;;4.75;;
62905;SDS011;49003;51.038;3.602;2022-08-21T01:38:19;17.08;;;4.63;;
62905;SDS011;49003;51.038;3.602;2022-08-21T01:40:47;16.65;;;4.25;;
62905;SDS011;49003;51.038;3.602;2022-08-21T01:43:13;14.10;;;4.53;;
62905;SDS011;49003;51.038;3.602;2022-08-21T01:45:41;15.85;;;4.57;;
62905;SDS011;49003;51.038;3.602;2022-08-21T01:48:07;12.15;;;4.57;;
62905;SDS011;49003;51.038;3.602;2022-08-21T01:50:33;25.08;;;4.95;;
62905;SDS011;49003;51.038;3.602;2022-08-21T01:52:59;16.38;;;5.20;;
62905;SDS011;49003;51.038;3.602;2022-08-21T01:55:24;17.92;;;5.10;;
62905;SDS011;49003;51.038;3.602;2022-08-21T01:57:50;12.85;;;4.53;;
62905;SDS011;49003;51.038;3.602;2022-08-21T02:00:18;17.27;;;5.05;;
62905;SDS011;49003;51.038;3.602;2022-08-21T02:02:47;15.02;;;4.70;;
62905;SDS011;49003;51.038;3.602;2022-08-21T02:05:13;21.95;;;5.35;;
62905;SDS011;49003;51.038;3.602;2022-08-21T02:07:43;16.90;;;5.60;;
62905;SDS011;49003;51.038;3.602;2022-08-21T02:10:14;19.25;;;5.47;;
62905;SDS011;49003;51.038;3.602;2022-08-21T02:12:41;19.13;;;5.75;;
62905;SDS011;49003;51.038;3.602;2022-08-21T02:15:07;20.63;;;5.05;;
62905;SDS011;49003;51.038;3.602;2022-08-21T02:17:38;17.90;;;5.07;;
62905;SDS011;49003;51.038;3.602;2022-08-21T02:20:11;22.98;;;5.75;;
62905;SDS011;49003;51.038;3.602;2022-08-21T02:25:09;26.45;;;6.85;;
62905;SDS011;49003;51.038;3.602;2022-08-21T02:27:41;20.88;;;6.22;;
62905;SDS011;49003;51.038;3.602;2022-08-21T02:30:12;23.08;;;6.97;;
62905;SDS011;49003;51.038;3.602;2022-08-21T02:32:40;25.90;;;6.35;;
62905;SDS011;49003;51.038;3.602;2022-08-21T02:35:07;24.55;;;6.28;;
62905;SDS011;49003;51.038;3.602;2022-08-21T02:37:33;21.75;;;4.88;;
62905;SDS011;49003;51.038;3.602;2022-08-21T02:39:59;20.83;;;5.13;;
62905;SDS011;49003;51.038;3.602;2022-08-21T02:42:28;25.63;;;5.28;;
62905;SDS011;49003;51.038;3.602;2022-08-21T02:44:55;15.30;;;4.70;;
62905;SDS011;49003;51.038;3.602;2022-08-21T02:47:20;15.77;;;4.60;;
62905;SDS011;49003;51.038;3.602;2022-08-21T02:49:46;18.45;;;4.35;;
62905;SDS011;49003;51.038;3.602;2022-08-21T02:52:12;11.85;;;4.15;;
62905;SDS011;49003;51.038;3.602;2022-08-21T02:54:37;16.45;;;4.18;;
62905;SDS011;49003;51.038;3.602;2022-08-21T02:57:08;21.70;;;4.95;;
62905;SDS011;49003;51.038;3.602;2022-08-21T02:59:33;20.90;;;5.65;;
62905;SDS011;49003;51.038;3.602;2022-08-21T03:01:59;20.98;;;5.30;;
62905;SDS011;49003;51.038;3.602;2022-08-21T03:04:27;15.52;;;5.03;;
62905;SDS011;49003;51.038;3.602;2022-08-21T03:06:55;20.10;;;5.55;;
62905;SDS011;49003;51.038;3.602;2022-08-21T03:09:21;27.08;;;5.25;;
62905;SDS011;49003;51.038;3.602;2022-08-21T03:11:46;22.00;;;5.45;;
62905;SDS011;49003;51.038;3.602;2022-08-21T03:14:14;24.67;;;5.68;;
62905;SDS011;49003;51.038;3.602;2022-08-21T03:16:39;19.92;;;5.50;;
62905;SDS011;49003;51.038;3.602;2022-08-21T03:19:05;23.92;;;5.53;;
62905;SDS011;49003;51.038;3.602;2022-08-21T03:21:31;16.58;;;4.72;;
62905;SDS011;49003;51.038;3.602;2022-08-21T03:23:56;21.70;;;6.10;;
62905;SDS011;49003;51.038;3.602;2022-08-21T03:26:22;19.38;;;5.60;;
62905;SDS011;49003;51.038;3.602;2022-08-21T03:28:49;22.08;;;5.88;;
62905;SDS011;49003;51.038;3.602;2022-08-21T03:31:15;22.25;;;4.88;;
62905;SDS011;49003;51.038;3.602;2022-08-21T03:33:46;28.15;;;6.93;;
62905;SDS011;49003;51.038;3.602;2022-08-21T03:36:12;21.70;;;5.75;;
62905;SDS011;49003;51.038;3.602;2022-08-21T03:38:42;24.02;;;6.20;;
62905;SDS011;49003;51.038;3.602;2022-08-21T03:41:08;21.13;;;5.43;;
62905;SDS011;49003;51.038;3.602;2022-08-21T03:43:34;23.80;;;5.85;;
62905;SDS011;49003;51.038;3.602;2022-08-21T03:46:01;26.40;;;6.00;;
62905;SDS011;49003;51.038;3.602;2022-08-21T03:48:28;15.45;;;5.80;;
62905;SDS011;49003;51.038;3.602;2022-08-21T03:50:56;27.42;;;6.50;;
62905;SDS011;49003;51.038;3.602;2022-08-21T03:53:25;30.85;;;6.20;;
62905;SDS011;49003;51.038;3.602;2022-08-21T03:55:53;26.50;;;6.78;;
62905;SDS011;49003;51.038;3.602;2022-08-21T03:58:20;24.38;;;6.28;;
62905;SDS011;49003;51.038;3.602;2022-08-21T04:00:49;21.42;;;6.75;;
62905;SDS011;49003;51.038;3.602;2022-08-21T04:03:18;21.33;;;5.95;;
62905;SDS011;49003;51.038;3.602;2022-08-21T04:05:44;24.13;;;6.78;;
62905;SDS011;49003;51.038;3.602;2022-08-21T04:08:14;21.00;;;6.18;;
62905;SDS011;49003;51.038;3.602;2022-08-21T04:10:45;29.30;;;6.05;;
62905;SDS011;49003;51.038;3.602;2022-08-21T04:13:13;25.75;;;6.07;;
62905;SDS011;49003;51.038;3.602;2022-08-21T04:15:42;28.10;;;7.78;;
62905;SDS011;49003;51.038;3.602;2022-08-21T04:18:09;23.95;;;6.60;;
62905;SDS011;49003;51.038;3.602;2022-08-21T04:20:38;23.90;;;6.25;;
62905;SDS011;49003;51.038;3.602;2022-08-21T04:23:05;27.98;;;6.10;;
62905;SDS011;49003;51.038;3.602;2022-08-21T04:25:31;24.92;;;6.00;;
62905;SDS011;49003;51.038;3.602;2022-08-21T04:27:57;20.15;;;5.45;;
62905;SDS011;49003;51.038;3.602;2022-08-21T04:30:23;14.80;;;5.45;;
62905;SDS011;49003;51.038;3.602;2022-08-21T04:32:50;24.40;;;5.53;;
62905;SDS011;49003;51.038;3.602;2022-08-21T04:35:17;22.50;;;5.45;;
62905;SDS011;49003;51.038;3.602;2022-08-21T04:37:45;23.15;;;6.35;;
62905;SDS011;49003;51.038;3.602;2022-08-21T04:40:17;25.70;;;5.78;;
62905;SDS011;49003;51.038;3.602;2022-08-21T04:42:46;28.73;;;6.30;;
62905;SDS011;49003;51.038;3.602;2022-08-21T04:45:17;28.48;;;5.97;;
62905;SDS011;49003;51.038;3.602;2022-08-21T04:47:49;22.92;;;5.78;;
62905;SDS011;49003;51.038;3.602;2022-08-21T04:50:18;24.67;;;6.10;;
62905;SDS011;49003;51.038;3.602;2022-08-21T04:52:49;27.25;;;6.00;;
62905;SDS011;49003;51.038;3.602;2022-08-21T04:55:15;32.20;;;5.93;;
62905;SDS011;49003;51.038;3.602;2022-08-21T04:57:45;20.80;;;4.63;;
62905;SDS011;49003;51.038;3.602;2022-08-21T05:00:18;23.85;;;5.15;;
62905;SDS011;49003;51.038;3.602;2022-08-21T05:02:44;25.52;;;6.05;;
62905;SDS011;49003;51.038;3.602;2022-08-21T05:05:12;26.73;;;5.88;;
62905;SDS011;49003;51.038;3.602;2022-08-21T05:07:38;20.60;;;5.75;;
62905;SDS011;49003;51.038;3.602;2022-08-21T05:10:04;25.08;;;6.03;;
62905;SDS011;49003;51.038;3.602;2022-08-21T05:12:33;24.63;;;6.30;;
62905;SDS011;49003;51.038;3.602;2022-08-21T05:15:00;26.55;;;6.70;;
62905;SDS011;49003;51.038;3.602;2022-08-21T05:17:25;28.90;;;6.68;;
62905;SDS011;49003;51.038;3.602;2022-08-21T05:19:51;18.70;;;5.68;;
62905;SDS011;49003;51.038;3.602;2022-08-21T05:22:23;21.38;;;5.45;;
62905;SDS011;49003;51.038;3.602;2022-08-21T05:24:49;25.45;;;5.47;;
62905;SDS011;49003;51.038;3.602;2022-08-21T05:27:16;26.30;;;5.55;;
62905;SDS011;49003;51.038;3.602;2022-08-21T05:29:46;22.42;;;6.28;;
62905;SDS011;49003;51.038;3.602;2022-08-21T05:32:12;22.25;;;5.00;;
62905;SDS011;49003;51.038;3.602;2022-08-21T05:34:41;24.90;;;5.38;;
62905;SDS011;49003;51.038;3.602;2022-08-21T05:37:07;31.75;;;5.88;;
62905;SDS011;49003;51.038;3.602;2022-08-21T05:39:37;20.38;;;5.63;;
62905;SDS011;49003;51.038;3.602;2022-08-21T05:42:03;22.38;;;4.97;;
62905;SDS011;49003;51.038;3.602;2022-08-21T05:44:28;25.00;;;5.90;;
62905;SDS011;49003;51.038;3.602;2022-08-21T05:46:54;25.05;;;6.43;;
62905;SDS011;49003;51.038;3.602;2022-08-21T05:49:26;20.08;;;5.70;;
62905;SDS011;49003;51.038;3.602;2022-08-21T05:51:52;18.80;;;5.40;;
62905;SDS011;49003;51.038;3.602;2022-08-21T05:54:17;18.58;;;5.13;;
62905;SDS011;49003;51.038;3.602;2022-08-21T05:56:43;23.15;;;4.90;;
62905;SDS011;49003;51.038;3.602;2022-08-21T05:59:09;28.80;;;5.82;;
62905;SDS011;49003;51.038;3.602;2022-08-21T06:01:35;14.85;;;4.70;;
62905;SDS011;49003;51.038;3.602;2022-08-21T06:04:01;22.30;;;5.50;;
62905;SDS011;49003;51.038;3.602;2022-08-21T06:06:27;18.15;;;5.20;;
62905;SDS011;49003;51.038;3.602;2022-08-21T06:08:53;21.55;;;5.28;;
62905;SDS011;49003;51.038;3.602;2022-08-21T06:11:18;16.10;;;4.28;;
62905;SDS011;49003;51.038;3.602;2022-08-21T06:13:44;18.35;;;4.70;;
62905;SDS011;49003;51.038;3.602;2022-08-21T06:16:12;19.48;;;4.50;;
62905;SDS011;49003;51.038;3.602;2022-08-21T06:18:43;19.67;;;3.80;;
62905;SDS011;49003;51.038;3.602;2022-08-21T06:21:10;18.20;;;4.25;;
62905;SDS011;49003;51.038;3.602;2022-08-21T06:23:36;24.42;;;4.68;;
62905;SDS011;49003;51.038;3.602;2022-08-21T06:26:03;17.02;;;4.35;;
62905;SDS011;49003;51.038;3.602;2022-08-21T06:28:29;17.80;;;4.72;;
62905;SDS011;49003;51.038;3.602;2022-08-21T06:30:55;17.13;;;4.60;;
62905;SDS011;49003;51.038;3.602;2022-08-21T06:33:21;18.67;;;5.25;;
62905;SDS011;49003;51.038;3.602;2022-08-21T06:35:52;11.15;;;4.10;;
62905;SDS011;49003;51.038;3.602;2022-08-21T06:38:18;19.15;;;4.55;;
62905;SDS011;49003;51.038;3.602;2022-08-21T06:40:44;10.55;;;4.05;;
62905;SDS011;49003;51.038;3.602;2022-08-21T06:43:11;13.77;;;3.70;;
62905;SDS011;49003;51.038;3.602;2022-08-21T06:45:38;20.17;;;4.68;;
62905;SDS011;49003;51.038;3.602;2022-08-21T06:48:06;15.23;;;4.22;;
62905;SDS011;49003;51.038;3.602;2022-08-21T06:50:34;20.30;;;3.88;;
62905;SDS011;49003;51.038;3.602;2022-08-21T06:53:03;18.25;;;4.10;;
62905;SDS011;49003;51.038;3.602;2022-08-21T06:55:32;14.32;;;4.30;;
62905;SDS011;49003;51.038;3.602;2022-08-21T06:58:01;18.15;;;4.28;;
62905;SDS011;49003;51.038;3.602;2022-08-21T07:00:29;14.13;;;3.60;;
62905;SDS011;49003;51.038;3.602;2022-08-21T07:02:57;14.05;;;3.20;;
62905;SDS011;49003;51.038;3.602;2022-08-21T07:05:28;18.30;;;3.55;;
62905;SDS011;49003;51.038;3.602;2022-08-21T07:07:57;12.68;;;3.22;;
62905;SDS011;49003;51.038;3.602;2022-08-21T07:10:24;17.45;;;3.67;;
62905;SDS011;49003;51.038;3.602;2022-08-21T07:12:51;11.20;;;3.13;;
62905;SDS011;49003;51.038;3.602;2022-08-21T07:15:18;12.27;;;3.53;;
62905;SDS011;49003;51.038;3.602;2022-08-21T07:17:47;14.48;;;3.20;;
62905;SDS011;49003;51.038;3.602;2022-08-21T07:20:12;14.98;;;3.90;;
62905;SDS011;49003;51.038;3.602;2022-08-21T07:22:38;11.65;;;3.28;;
62905;SDS011;49003;51.038;3.602;2022-08-21T07:25:05;13.82;;;3.22;;
62905;SDS011;49003;51.038;3.602;2022-08-21T07:27:31;15.35;;;3.70;;
62905;SDS011;49003;51.038;3.602;2022-08-21T07:29:59;15.40;;;3.15;;
62905;SDS011;49003;51.038;3.602;2022-08-21T07:32:25;11.15;;;3.63;;
62905;SDS011;49003;51.038;3.602;2022-08-21T07:34:51;12.18;;;3.28;;
62905;SDS011;49003;51.038;3.602;2022-08-21T07:37:19;14.70;;;3.85;;
62905;SDS011;49003;51.038;3.602;2022-08-21T07:39:44;8.57;;;2.78;;
62905;SDS011;49003;51.038;3.602;2022-08-21T07:42:13;9.60;;;3.25;;
62905;SDS011;49003;51.038;3.602;2022-08-21T07:44:42;15.00;;;3.17;;
62905;SDS011;49003;51.038;3.602;2022-08-21T07:47:09;12.68;;;3.25;;
62905;SDS011;49003;51.038;3.602;2022-08-21T07:49:38;16.80;;;3.80;;
62905;SDS011;49003;51.038;3.602;2022-08-21T07:52:05;11.98;;;3.80;;
62905;SDS011;49003;51.038;3.602;2022-08-21T07:54:33;11.80;;;3.30;;
62905;SDS011;49003;51.038;3.602;2022-08-21T07:57:04;16.13;;;3.58;;
62905;SDS011;49003;51.038;3.602;2022-08-21T07:59:30;11.00;;;3.45;;
62905;SDS011;49003;51.038;3.602;2022-08-21T08:01:57;9.80;;;2.83;;
62905;SDS011;49003;51.038;3.602;2022-08-21T08:04:23;17.75;;;3.13;;
62905;SDS011;49003;51.038;3.602;2022-08-21T08:06:49;10.65;;;3.28;;
62905;SDS011;49003;51.038;3.602;2022-08-21T08:09:17;14.43;;;3.42;;
62905;SDS011;49003;51.038;3.602;2022-08-21T08:11:43;10.68;;;3.33;;
62905;SDS011;49003;51.038;3.602;2022-08-21T08:14:08;9.93;;;3.90;;
62905;SDS011;49003;51.038;3.602;2022-08-21T08:16:34;10.73;;;3.05;;
62905;SDS011;49003;51.038;3.602;2022-08-21T08:19:00;18.40;;;3.33;;
62905;SDS011;49003;51.038;3.602;2022-08-21T08:21:26;15.85;;;3.03;;
62905;SDS011;49003;51.038;3.602;2022-08-21T08:23:52;10.77;;;3.20;;
62905;SDS011;49003;51.038;3.602;2022-08-21T08:26:19;10.95;;;3.92;;
62905;SDS011;49003;51.038;3.602;2022-08-21T08:28:45;15.55;;;3.85;;
62905;SDS011;49003;51.038;3.602;2022-08-21T08:31:12;18.58;;;3.47;;
62905;SDS011;49003;51.038;3.602;2022-08-21T08:33:38;11.50;;;3.80;;
62905;SDS011;49003;51.038;3.602;2022-08-21T08:36:04;15.27;;;3.10;;
62905;SDS011;49003;51.038;3.602;2022-08-21T08:38:33;16.58;;;3.92;;
62905;SDS011;49003;51.038;3.602;2022-08-21T08:41:15;11.40;;;3.40;;
62905;SDS011;49003;51.038;3.602;2022-08-21T08:43:50;15.02;;;3.05;;
62905;SDS011;49003;51.038;3.602;2022-08-21T08:46:21;15.25;;;2.95;;
62905;SDS011;49003;51.038;3.602;2022-08-21T08:49:17;11.65;;;2.78;;
62905;SDS011;49003;51.038;3.602;2022-08-21T08:54:28;15.73;;;2.67;;
62905;SDS011;49003;51.038;3.602;2022-08-21T08:57:25;13.85;;;2.75;;
62905;SDS011;49003;51.038;3.602;2022-08-21T08:59:53;15.27;;;2.47;;
62905;SDS011;49003;51.038;3.602;2022-08-21T09:02:22;14.20;;;2.28;;
62905;SDS011;49003;51.038;3.602;2022-08-21T09:04:49;13.73;;;2.83;;
62905;SDS011;49003;51.038;3.602;2022-08-21T09:20:46;14.48;;;2.33;;
62905;SDS011;49003;51.038;3.602;2022-08-21T09:26:26;9.50;;;1.80;;
62905;SDS011;49003;51.038;3.602;2022-08-21T09:28:58;13.63;;;2.28;;
62905;SDS011;49003;51.038;3.602;2022-08-21T09:31:30;12.70;;;2.13;;
62905;SDS011;49003;51.038;3.602;2022-08-21T09:33:59;8.43;;;1.88;;
62905;SDS011;49003;51.038;3.602;2022-08-21T09:36:29;11.50;;;2.25;;
62905;SDS011;49003;51.038;3.602;2022-08-21T09:39:03;9.57;;;2.50;;
62905;SDS011;49003;51.038;3.602;2022-08-21T09:41:30;6.07;;;1.45;;
62905;SDS011;49003;51.038;3.602;2022-08-21T09:44:05;11.73;;;1.87;;
62905;SDS011;49003;51.038;3.602;2022-08-21T09:46:33;11.00;;;2.00;;
62905;SDS011;49003;51.038;3.602;2022-08-21T09:49:02;11.10;;;2.08;;
62905;SDS011;49003;51.038;3.602;2022-08-21T09:51:29;11.05;;;2.63;;
62905;SDS011;49003;51.038;3.602;2022-08-21T09:54:11;11.10;;;2.10;;
62905;SDS011;49003;51.038;3.602;2022-08-21T09:56:55;11.07;;;1.98;;
62905;SDS011;49003;51.038;3.602;2022-08-21T09:59:44;10.35;;;1.95;;
62905;SDS011;49003;51.038;3.602;2022-08-21T10:04:55;12.30;;;2.00;;
62905;SDS011;49003;51.038;3.602;2022-08-21T10:07:31;12.30;;;1.95;;
62905;SDS011;49003;51.038;3.602;2022-08-21T10:10:04;9.25;;;2.47;;
62905;SDS011;49003;51.038;3.602;2022-08-21T10:15:36;7.18;;;1.73;;
62905;SDS011;49003;51.038;3.602;2022-08-21T10:29:34;14.00;;;1.92;;
62905;SDS011;49003;51.038;3.602;2022-08-21T10:43:00;8.80;;;1.75;;
62905;SDS011;49003;51.038;3.602;2022-08-21T10:45:45;13.68;;;1.98;;
62905;SDS011;49003;51.038;3.602;2022-08-21T10:48:19;8.85;;;1.73;;
62905;SDS011;49003;51.038;3.602;2022-08-21T10:51:25;13.20;;;1.73;;
62905;SDS011;49003;51.038;3.602;2022-08-21T10:56:40;10.85;;;1.90;;
62905;SDS011;49003;51.038;3.602;2022-08-21T11:01:56;10.25;;;1.80;;
62905;SDS011;49003;51.038;3.602;2022-08-21T11:04:32;9.70;;;2.05;;
62905;SDS011;49003;51.038;3.602;2022-08-21T11:07:04;9.50;;;1.67;;
62905;SDS011;49003;51.038;3.602;2022-08-21T11:09:37;9.05;;;1.63;;
62905;SDS011;49003;51.038;3.602;2022-08-21T11:12:06;12.65;;;1.95;;
62905;SDS011;49003;51.038;3.602;2022-08-21T11:15:11;13.70;;;2.33;;
62905;SDS011;49003;51.038;3.602;2022-08-21T11:17:57;12.10;;;1.90;;
62905;SDS011;49003;51.038;3.602;2022-08-21T11:20:42;6.00;;;1.67;;
62905;SDS011;49003;51.038;3.602;2022-08-21T11:23:19;11.57;;;2.40;;
62905;SDS011;49003;51.038;3.602;2022-08-21T11:25:53;11.10;;;1.90;;
62905;SDS011;49003;51.038;3.602;2022-08-21T11:28:26;9.93;;;1.70;;
62905;SDS011;49003;51.038;3.602;2022-08-21T11:31:10;9.75;;;2.13;;
62905;SDS011;49003;51.038;3.602;2022-08-21T11:51:12;9.95;;;1.75;;
62905;SDS011;49003;51.038;3.602;2022-08-21T11:54:07;7.22;;;1.90;;
62905;SDS011;49003;51.038;3.602;2022-08-21T11:56:46;8.88;;;1.90;;
62905;SDS011;49003;51.038;3.602;2022-08-21T11:59:17;12.88;;;2.10;;
62905;SDS011;49003;51.038;3.602;2022-08-21T12:01:47;10.65;;;2.03;;
62905;SDS011;49003;51.038;3.602;2022-08-21T12:04:29;12.02;;;3.15;;
62905;SDS011;49003;51.038;3.602;2022-08-21T12:07:10;10.82;;;2.20;;
62905;SDS011;49003;51.038;3.602;2022-08-21T12:09:51;11.73;;;2.17;;
62905;SDS011;49003;51.038;3.602;2022-08-21T12:12:30;7.50;;;1.60;;
62905;SDS011;49003;51.038;3.602;2022-08-21T12:18:03;19.48;;;2.72;;
62905;SDS011;49003;51.038;3.602;2022-08-21T12:28:47;13.30;;;2.25;;
62905;SDS011;49003;51.038;3.602;2022-08-21T12:31:23;9.88;;;1.73;;
62905;SDS011;49003;51.038;3.602;2022-08-21T12:33:52;12.73;;;2.55;;
62905;SDS011;49003;51.038;3.602;2022-08-21T12:36:23;13.25;;;1.95;;
62905;SDS011;49003;51.038;3.602;2022-08-21T12:38:56;8.27;;;1.80;;
62905;SDS011;49003;51.038;3.602;2022-08-21T12:41:32;13.57;;;2.72;;
62905;SDS011;49003;51.038;3.602;2022-08-21T12:44:13;10.00;;;2.45;;
62905;SDS011;49003;51.038;3.602;2022-08-21T12:46:48;11.48;;;1.88;;
62905;SDS011;49003;51.038;3.602;2022-08-21T12:49:37;15.25;;;2.63;;
62905;SDS011;49003;51.038;3.602;2022-08-21T12:52:24;9.15;;;1.95;;
62905;SDS011;49003;51.038;3.602;2022-08-21T12:54:52;19.05;;;2.38;;
62905;SDS011;49003;51.038;3.602;2022-08-21T12:57:22;12.85;;;2.30;;
62905;SDS011;49003;51.038;3.602;2022-08-21T12:59:57;11.15;;;2.40;;
62905;SDS011;49003;51.038;3.602;2022-08-21T13:02:30;11.10;;;2.15;;
62905;SDS011;49003;51.038;3.602;2022-08-21T13:04:58;9.15;;;1.80;;
62905;SDS011;49003;51.038;3.602;2022-08-21T13:10:06;11.45;;;2.22;;
62905;SDS011;49003;51.038;3.602;2022-08-21T13:12:52;10.88;;;2.10;;
62905;SDS011;49003;51.038;3.602;2022-08-21T13:17:54;11.73;;;1.92;;
62905;SDS011;49003;51.038;3.602;2022-08-21T13:20:28;7.75;;;2.03;;
62905;SDS011;49003;51.038;3.602;2022-08-21T13:22:57;9.95;;;1.70;;
62905;SDS011;49003;51.038;3.602;2022-08-21T13:25:25;11.70;;;2.17;;
62905;SDS011;49003;51.038;3.602;2022-08-21T13:28:00;9.32;;;1.60;;
62905;SDS011;49003;51.038;3.602;2022-08-21T13:30:30;10.30;;;1.80;;
62905;SDS011;49003;51.038;3.602;2022-08-21T13:33:01;9.27;;;1.92;;
62905;SDS011;49003;51.038;3.602;2022-08-21T13:38:01;10.48;;;1.83;;
62905;SDS011;49003;51.038;3.602;2022-08-21T13:40:30;13.07;;;2.10;;
62905;SDS011;49003;51.038;3.602;2022-08-21T13:43:02;9.95;;;2.17;;
62905;SDS011;49003;51.038;3.602;2022-08-21T13:45:31;6.95;;;1.70;;
62905;SDS011;49003;51.038;3.602;2022-08-21T13:47:59;7.47;;;1.77;;
62905;SDS011;49003;51.038;3.602;2022-08-21T13:50:28;13.93;;;2.50;;
62905;SDS011;49003;51.038;3.602;2022-08-21T13:55:39;13.38;;;2.55;;
62905;SDS011;49003;51.038;3.602;2022-08-21T13:58:07;13.48;;;2.28;;
62905;SDS011;49003;51.038;3.602;2022-08-21T14:00:35;10.70;;;2.30;;
62905;SDS011;49003;51.038;3.602;2022-08-21T14:03:23;11.13;;;1.95;;
62905;SDS011;49003;51.038;3.602;2022-08-21T14:05:57;12.53;;;2.47;;
62905;SDS011;49003;51.038;3.602;2022-08-21T14:10:56;15.23;;;2.95;;
62905;SDS011;49003;51.038;3.602;2022-08-21T14:13:39;9.82;;;2.67;;
62905;SDS011;49003;51.038;3.602;2022-08-21T14:16:11;8.50;;;1.73;;
62905;SDS011;49003;51.038;3.602;2022-08-21T14:19:07;10.43;;;2.28;;
62905;SDS011;49003;51.038;3.602;2022-08-21T14:21:39;11.32;;;1.98;;
62905;SDS011;49003;51.038;3.602;2022-08-21T14:24:10;11.07;;;2.45;;
62905;SDS011;49003;51.038;3.602;2022-08-21T14:27:20;8.35;;;2.03;;
62905;SDS011;49003;51.038;3.602;2022-08-21T14:29:33;10.02;;;2.13;;
62905;SDS011;49003;51.038;3.602;2022-08-21T14:34:52;10.90;;;2.25;;
62905;SDS011;49003;51.038;3.602;2022-08-21T14:37:20;8.73;;;1.90;;
62905;SDS011;49003;51.038;3.602;2022-08-21T14:39:49;13.10;;;2.75;;
62905;SDS011;49003;51.038;3.602;2022-08-21T14:42:18;16.08;;;2.42;;
62905;SDS011;49003;51.038;3.602;2022-08-21T14:44:44;14.10;;;2.20;;
62905;SDS011;49003;51.038;3.602;2022-08-21T14:47:09;16.05;;;2.42;;
62905;SDS011;49003;51.038;3.602;2022-08-21T14:49:35;9.90;;;2.08;;
62905;SDS011;49003;51.038;3.602;2022-08-21T14:52:01;12.95;;;2.38;;
62905;SDS011;49003;51.038;3.602;2022-08-21T14:54:28;8.93;;;2.28;;
62905;SDS011;49003;51.038;3.602;2022-08-21T14:56:55;13.23;;;2.33;;
62905;SDS011;49003;51.038;3.602;2022-08-21T14:59:22;14.82;;;2.33;;
62905;SDS011;49003;51.038;3.602;2022-08-21T15:01:48;18.20;;;2.35;;
62905;SDS011;49003;51.038;3.602;2022-08-21T15:04:18;10.02;;;1.80;;
62905;SDS011;49003;51.038;3.602;2022-08-21T15:06:46;17.77;;;2.25;;
62905;SDS011;49003;51.038;3.602;2022-08-21T15:09:11;9.82;;;1.98;;
62905;SDS011;49003;51.038;3.602;2022-08-21T15:11:37;4.82;;;1.70;;
62905;SDS011;49003;51.038;3.602;2022-08-21T15:14:03;9.60;;;2.15;;
62905;SDS011;49003;51.038;3.602;2022-08-21T15:16:35;14.60;;;2.88;;
62905;SDS011;49003;51.038;3.602;2022-08-21T15:19:01;13.07;;;2.08;;
62905;SDS011;49003;51.038;3.602;2022-08-21T15:21:29;8.25;;;2.17;;
62905;SDS011;49003;51.038;3.602;2022-08-21T15:23:57;11.85;;;2.50;;
62905;SDS011;49003;51.038;3.602;2022-08-21T15:26:23;11.60;;;2.03;;
62905;SDS011;49003;51.038;3.602;2022-08-21T15:28:49;10.48;;;2.47;;
62905;SDS011;49003;51.038;3.602;2022-08-21T15:31:15;9.95;;;2.10;;
62905;SDS011;49003;51.038;3.602;2022-08-21T15:33:40;8.00;;;2.10;;
62905;SDS011;49003;51.038;3.602;2022-08-21T15:36:08;11.52;;;2.90;;
62905;SDS011;49003;51.038;3.602;2022-08-21T15:38:34;12.50;;;2.75;;
62905;SDS011;49003;51.038;3.602;2022-08-21T15:41:01;11.55;;;2.05;;
62905;SDS011;49003;51.038;3.602;2022-08-21T15:43:29;10.73;;;2.53;;
62905;SDS011;49003;51.038;3.602;2022-08-21T15:46:00;7.88;;;2.58;;
62905;SDS011;49003;51.038;3.602;2022-08-21T15:48:27;9.93;;;2.33;;
62905;SDS011;49003;51.038;3.602;2022-08-21T15:50:53;8.05;;;2.40;;
62905;SDS011;49003;51.038;3.602;2022-08-21T15:53:18;12.70;;;2.72;;
62905;SDS011;49003;51.038;3.602;2022-08-21T15:55:47;10.45;;;1.90;;
62905;SDS011;49003;51.038;3.602;2022-08-21T15:58:13;13.95;;;2.50;;
62905;SDS011;49003;51.038;3.602;2022-08-21T16:00:43;9.43;;;2.42;;
62905;SDS011;49003;51.038;3.602;2022-08-21T16:03:13;7.82;;;2.00;;
62905;SDS011;49003;51.038;3.602;2022-08-21T16:05:44;10.13;;;2.35;;
62905;SDS011;49003;51.038;3.602;2022-08-21T16:08:10;10.23;;;2.13;;
62905;SDS011;49003;51.038;3.602;2022-08-21T16:10:36;9.13;;;2.17;;
62905;SDS011;49003;51.038;3.602;2022-08-21T16:13:05;14.13;;;2.20;;
62905;SDS011;49003;51.038;3.602;2022-08-21T16:15:35;6.05;;;1.63;;
62905;SDS011;49003;51.038;3.602;2022-08-21T16:18:01;13.88;;;2.60;;
62905;SDS011;49003;51.038;3.602;2022-08-21T16:20:29;11.88;;;2.47;;
62905;SDS011;49003;51.038;3.602;2022-08-21T16:22:56;8.95;;;2.08;;
62905;SDS011;49003;51.038;3.602;2022-08-21T16:25:25;11.15;;;2.28;;
62905;SDS011;49003;51.038;3.602;2022-08-21T16:27:52;12.68;;;2.17;;
62905;SDS011;49003;51.038;3.602;2022-08-21T16:30:22;11.00;;;2.17;;
62905;SDS011;49003;51.038;3.602;2022-08-21T16:32:48;10.15;;;2.13;;